createdAt,value
2022-11-19T00:01:35.303Z,95012.75
2022-11-19T00:04:03.068Z,95015.34
2022-11-19T00:06:30.772Z,95017.19
2022-11-19T00:08:58.442Z,94974.94
2022-11-19T00:11:41.805Z,95008.53
2022-11-19T00:14:12.380Z,95010.13
2022-11-19T00:16:40.233Z,94997.53
2022-11-19T00:19:09.367Z,94996.19
2022-11-19T00:21:37.148Z,94989.16
2022-11-19T00:24:05.152Z,94995.44
2022-11-19T00:26:32.980Z,94969.34
2022-11-19T00:29:00.669Z,94989.16
2022-11-19T00:31:29.749Z,94998.31
2022-11-19T00:33:57.425Z,94968.09
2022-11-19T00:36:25.176Z,95002.28
2022-11-19T00:38:52.890Z,94994.97
2022-11-19T00:41:20.599Z,94987.44
2022-11-19T00:43:48.877Z,95002.03
2022-11-19T00:46:18.706Z,94982.75
2022-11-19T00:48:48.880Z,95002.03
2022-11-19T00:51:17.874Z,95000.75
2022-11-19T00:53:45.672Z,94982.00
2022-11-19T00:56:15.343Z,95005.94
2022-11-19T00:58:43.639Z,94996.53
2022-11-19T01:01:12.795Z,94986.13
2022-11-19T01:03:42.288Z,94958.16
2022-11-19T01:06:14.237Z,95003.84
2022-11-19T01:08:46.113Z,95008.53
2022-11-19T01:11:16.358Z,94978.25
2022-11-19T01:13:44.181Z,94995.72
2022-11-19T01:16:13.431Z,95011.94
2022-11-19T01:18:42.364Z,95009.06
2022-11-19T01:21:13.317Z,95014.84
2022-11-19T01:23:42.709Z,95014.78
2022-11-19T01:26:11.756Z,95017.13
2022-11-19T01:28:39.679Z,95011.66
2022-11-19T01:31:08.896Z,95014.47
2022-11-19T01:33:36.812Z,94983.19
2022-11-19T01:36:07.006Z,95017.09
2022-11-19T01:38:36.175Z,94992.88
2022-11-19T01:41:04.725Z,95021.78
2022-11-19T01:43:44.940Z,95025.44
2022-11-19T01:46:14.416Z,95024.63
2022-11-19T01:48:46.423Z,94926.69
2022-11-19T01:51:18.059Z,95022.06
2022-11-19T01:53:50.560Z,94969.41
2022-11-19T01:56:21.929Z,94891.47
2022-11-19T01:58:54.502Z,95025.47
2022-11-19T02:01:23.557Z,95024.13
2022-11-19T02:03:53.336Z,94975.13
2022-11-19T02:06:21.167Z,95033.09
2022-11-19T02:08:51.523Z,95017.19
2022-11-19T02:11:51.639Z,95031.81
2022-11-19T02:14:33.415Z,95028.41
2022-11-19T02:17:11.981Z,95036.50
2022-11-19T02:20:34.063Z,95034.91
2022-11-19T02:23:50.366Z,95040.38
2022-11-19T02:26:50.054Z,95036.19
2022-11-19T02:29:30.822Z,95030.41
2022-11-19T02:32:03.225Z,95013.19
2022-11-19T02:34:38.956Z,95038.28
2022-11-19T02:37:13.539Z,95044.53
2022-11-19T02:39:44.848Z,95025.72
2022-11-19T02:42:19.608Z,95048.50
2022-11-19T02:45:02.461Z,95036.97
2022-11-19T02:47:36.440Z,95035.69
2022-11-19T02:50:10.648Z,95045.88
2022-11-19T02:52:43.778Z,95018.25
2022-11-19T02:55:13.296Z,95022.94
2022-11-19T02:57:43.215Z,94950.97
2022-11-19T03:00:29.919Z,95041.19
2022-11-19T03:03:21.334Z,95040.16
2022-11-19T03:05:52.975Z,95045.13
2022-11-19T03:08:21.061Z,95052.38
2022-11-19T03:10:56.312Z,95048.78
2022-11-19T03:13:45.457Z,95063.59
2022-11-19T03:16:36.574Z,95056.78
2022-11-19T03:19:11.288Z,95059.97
2022-11-19T03:21:43.329Z,95057.81
2022-11-19T03:24:15.420Z,95057.34
2022-11-19T03:26:48.893Z,95047.47
2022-11-19T03:29:17.572Z,95063.16
2022-11-19T03:31:50.245Z,95067.00
2022-11-19T03:34:23.055Z,95070.19
2022-11-19T03:36:55.046Z,95002.09
2022-11-19T03:39:24.043Z,95078.03
2022-11-19T03:41:54.416Z,95072.31
2022-11-19T03:44:28.150Z,95073.59
2022-11-19T03:47:01.763Z,95036.03
2022-11-19T03:49:34.735Z,95068.41
2022-11-19T03:52:07.621Z,95082.00
2022-11-19T03:54:35.460Z,94978.94
2022-11-19T03:57:04.406Z,95081.22
2022-11-19T03:59:32.286Z,95079.69
2022-11-19T04:02:03.113Z,95069.25
2022-11-19T04:04:38.035Z,95075.25
2022-11-19T04:07:08.334Z,95077.31
2022-11-19T04:09:36.509Z,95006.88
2022-11-19T04:12:04.758Z,95074.97
2022-11-19T04:14:32.531Z,95072.91
2022-11-19T04:17:00.398Z,95079.94
2022-11-19T04:19:28.041Z,95086.00
2022-11-19T04:21:57.104Z,95084.72
2022-11-19T04:24:24.800Z,95073.72
2022-11-19T04:26:52.688Z,95082.84
2022-11-19T04:29:20.673Z,95083.34
2022-11-19T04:31:48.555Z,95078.91
2022-11-19T04:34:16.254Z,95078.72
2022-11-19T04:36:43.935Z,95075.56
2022-11-19T04:39:13.335Z,95077.69
2022-11-19T04:41:41.574Z,95083.44
2022-11-19T04:44:09.388Z,95083.69
2022-11-19T04:46:37.063Z,95088.16
2022-11-19T04:49:05.044Z,95088.63
2022-11-19T04:51:32.724Z,95073.50
2022-11-19T04:54:00.461Z,95084.72
2022-11-19T04:56:29.566Z,95097.00
2022-11-19T04:58:57.484Z,95087.63
2022-11-19T05:01:25.194Z,95091.81
2022-11-19T05:03:53.025Z,95097.28
2022-11-19T05:06:20.715Z,95097.00
2022-11-19T05:08:48.374Z,95100.66
2022-11-19T05:11:16.065Z,95107.50
2022-11-19T05:13:45.111Z,95107.75
2022-11-19T05:16:12.845Z,95106.97
2022-11-19T05:18:40.516Z,95097.00
2022-11-19T05:21:08.389Z,95099.84
2022-11-19T05:23:36.303Z,95105.06
2022-11-19T05:26:04.007Z,95107.41
2022-11-19T05:28:38.877Z,95097.53
2022-11-19T05:31:09.207Z,95097.28
2022-11-19T05:33:36.923Z,95090.72
2022-11-19T05:36:05.043Z,95104.13
2022-11-19T05:38:32.860Z,95101.44
2022-11-19T05:41:00.513Z,95103.84
2022-11-19T05:43:28.201Z,95101.47
2022-11-19T05:45:55.859Z,95089.44
2022-11-19T05:48:24.852Z,95089.16
2022-11-19T05:50:52.548Z,95094.94
2022-11-19T05:53:20.255Z,95098.09
2022-11-19T05:55:47.982Z,95096.03
2022-11-19T05:58:15.640Z,95086.31
2022-11-19T06:00:43.484Z,95089.97
2022-11-19T06:03:11.960Z,95098.09
2022-11-19T06:05:41.037Z,95087.34
2022-11-19T06:08:09.019Z,95094.44
2022-11-19T06:10:36.812Z,95094.72
2022-11-19T06:13:04.557Z,95105.94
2022-11-19T06:15:32.225Z,95112.50
2022-11-19T06:17:59.900Z,95060.00
2022-11-19T06:20:27.659Z,95109.16
2022-11-19T06:22:56.724Z,95115.91
2022-11-19T06:25:24.643Z,95115.91
2022-11-19T06:27:52.317Z,95120.34
2022-11-19T06:30:19.997Z,95123.78
2022-11-19T06:32:47.694Z,95056.66
2022-11-19T06:35:15.419Z,95121.16
2022-11-19T06:37:43.069Z,95124.53
2022-11-19T06:40:13.903Z,95098.16
2022-11-19T06:42:41.608Z,95129.22
2022-11-19T06:45:11.960Z,95137.84
2022-11-19T06:47:40.675Z,95142.56
2022-11-19T06:50:10.759Z,95158.78
2022-11-19T06:52:38.620Z,95116.44
2022-11-19T06:55:07.376Z,95145.19
2022-11-19T06:57:36.463Z,95147.00
2022-11-19T07:00:04.944Z,95149.59
2022-11-19T07:02:32.673Z,95143.84
2022-11-19T07:05:00.340Z,95135.47
2022-11-19T07:07:28.520Z,95145.38
2022-11-19T07:09:56.336Z,95138.84
2022-11-19T07:12:24.041Z,95147.22
2022-11-19T07:14:53.011Z,95135.44
2022-11-19T07:17:20.657Z,95141.72
2022-11-19T07:19:48.358Z,95148.25
2022-11-19T07:22:16.269Z,95138.63
2022-11-19T07:24:44.831Z,95140.41
2022-11-19T07:27:12.493Z,95160.78
2022-11-19T07:29:40.197Z,95164.44
2022-11-19T07:32:09.639Z,95167.59
2022-11-19T07:34:37.240Z,95113.78
2022-11-19T07:37:04.958Z,95161.28
2022-11-19T07:39:32.658Z,95173.34
2022-11-19T07:42:17.912Z,95174.91
2022-11-19T07:44:47.195Z,95160.72
2022-11-19T07:47:17.812Z,95175.09
2022-11-19T07:49:45.467Z,95097.53
2022-11-19T07:52:13.149Z,95177.34
2022-11-19T07:54:40.964Z,95099.84
2022-11-19T07:57:08.992Z,95178.84
2022-11-19T07:59:36.647Z,95175.31
2022-11-19T08:02:04.415Z,95176.13
2022-11-19T08:04:33.532Z,95180.81
2022-11-19T08:07:02.786Z,95185.50
2022-11-19T08:09:30.549Z,95129.00
2022-11-19T08:11:58.489Z,95176.72
2022-11-19T08:14:26.373Z,95163.69
2022-11-19T08:17:23.192Z,95183.00
2022-11-19T08:19:52.186Z,95181.94
2022-11-19T08:22:19.839Z,95183.78
2022-11-19T08:24:47.493Z,95189.19
2022-11-19T08:27:15.154Z,95164.66
2022-11-19T08:29:42.813Z,95191.25
2022-11-19T08:32:10.467Z,95187.66
2022-11-19T08:34:38.110Z,95192.13
2022-11-19T08:37:07.548Z,95145.88
2022-11-19T08:39:35.228Z,95186.56
2022-11-19T08:42:20.387Z,95191.50
2022-11-19T08:44:48.043Z,95185.22
2022-11-19T08:47:15.731Z,95188.94
2022-11-19T08:49:43.427Z,95186.31
2022-11-19T08:52:12.406Z,95194.44
2022-11-19T08:54:40.046Z,95189.94
2022-11-19T08:57:07.684Z,95196.50
2022-11-19T08:59:35.948Z,95177.00
2022-11-19T09:02:03.674Z,95189.44
2022-11-19T09:04:31.424Z,95199.00
2022-11-19T09:06:59.130Z,95196.31
2022-11-19T09:09:28.201Z,95196.84
2022-11-19T09:11:56.312Z,95190.88
2022-11-19T09:14:23.972Z,95197.94
2022-11-19T09:16:51.612Z,95184.13
2022-11-19T09:19:19.403Z,95202.13
2022-11-19T09:21:47.099Z,95212.84
2022-11-19T09:24:14.808Z,95209.09
2022-11-19T09:26:46.567Z,95211.69
2022-11-19T09:29:17.992Z,95221.53
2022-11-19T09:31:45.648Z,95217.47
2022-11-19T09:34:13.296Z,95220.88
2022-11-19T09:36:40.966Z,95222.06
2022-11-19T09:39:08.623Z,95190.72
2022-11-19T09:41:51.022Z,95230.22
2022-11-19T09:44:33.553Z,95217.34
2022-11-19T09:47:10.855Z,95231.69
2022-11-19T09:49:45.092Z,95231.69
2022-11-19T09:52:16.772Z,95177.19
2022-11-19T09:54:49.340Z,95154.31
2022-11-19T09:57:24.934Z,95230.56
2022-11-19T09:59:56.496Z,95202.66
2022-11-19T10:02:24.768Z,95120.03
2022-11-19T10:04:53.512Z,95235.72
2022-11-19T10:07:37.477Z,95232.91
2022-11-19T10:10:21.395Z,95225.28
2022-11-19T10:13:13.223Z,95229.63
2022-11-19T10:16:02.417Z,95227.81
2022-11-19T10:18:38.906Z,95229.47
2022-11-19T10:21:12.337Z,95228.97
2022-11-19T10:23:49.327Z,95224.97
2022-11-19T10:26:19.311Z,95127.41
2022-11-19T10:28:56.105Z,95165.28
2022-11-19T10:31:30.356Z,95221.63
2022-11-19T10:34:04.477Z,95224.97
2022-11-19T10:36:37.903Z,95226.78
2022-11-19T10:39:14.681Z,95162.66
2022-11-19T10:41:47.701Z,95174.59
2022-11-19T10:44:43.792Z,95231.03
2022-11-19T10:47:19.300Z,95204.31
2022-11-19T10:49:53.032Z,95223.66
2022-11-19T10:52:27.627Z,95223.38
2022-11-19T10:54:59.281Z,95125.53
2022-11-19T10:57:30.543Z,95114.78
2022-11-19T11:00:01.035Z,95223.81
2022-11-19T11:02:34.775Z,95217.25
2022-11-19T11:05:06.992Z,95210.44
2022-11-19T11:08:01.992Z,95191.97
2022-11-19T11:10:42.959Z,95216.41
2022-11-19T11:13:45.557Z,95185.91
2022-11-19T11:16:18.098Z,95166.31
2022-11-19T11:18:47.260Z,95196.97
2022-11-19T11:21:34.159Z,95197.97
2022-11-19T11:24:04.530Z,95175.31
2022-11-19T11:26:34.585Z,95198.44
2022-11-19T11:29:05.193Z,95201.13
2022-11-19T11:31:40.489Z,95210.91
2022-11-19T11:34:15.760Z,95220.72
2022-11-19T11:36:44.679Z,95219.38
2022-11-19T11:39:26.099Z,95207.59
2022-11-19T11:42:05.512Z,95191.69
2022-11-19T11:44:37.493Z,95188.88
2022-11-19T11:47:14.105Z,95205.41
2022-11-19T11:49:46.534Z,95203.28
2022-11-19T11:52:21.204Z,95162.28
2022-11-19T11:55:00.950Z,95157.19
2022-11-19T11:57:30.596Z,95195.44
2022-11-19T11:59:58.930Z,95197.06
2022-11-19T12:02:33.557Z,95192.38
2022-11-19T12:05:17.088Z,95108.63
2022-11-19T12:07:59.198Z,95188.22
2022-11-19T12:10:34.713Z,95175.91
2022-11-19T12:13:37.698Z,95177.69
2022-11-19T12:16:14.051Z,95148.09
2022-11-19T12:18:53.328Z,95165.34
2022-11-19T12:21:32.253Z,95163.75
2022-11-19T12:24:14.783Z,95163.28
2022-11-19T12:26:53.233Z,95158.44
2022-11-19T12:29:31.426Z,95141.69
2022-11-19T12:32:13.790Z,95148.44
2022-11-19T12:35:09.921Z,95129.22
2022-11-19T12:38:16.340Z,95147.59
2022-11-19T12:40:54.006Z,95161.88
2022-11-19T12:43:40.720Z,95167.13
2022-11-19T12:46:17.539Z,95137.44
2022-11-19T12:48:57.558Z,95174.47
2022-11-19T12:51:38.428Z,95169.25
2022-11-19T12:54:28.936Z,95181.28
2022-11-19T12:57:22.725Z,95170.13
2022-11-19T13:00:09.374Z,95168.69
2022-11-19T13:02:41.959Z,95174.78
2022-11-19T13:05:15.670Z,95171.84
2022-11-19T13:07:50.230Z,95168.66
2022-11-19T13:10:23.600Z,95173.38
2022-11-19T13:12:54.009Z,95174.03
2022-11-19T13:15:27.438Z,95164.16
2022-11-19T13:17:57.538Z,95088.22
2022-11-19T13:20:29.104Z,95167.97
2022-11-19T13:23:03.974Z,95164.91
2022-11-19T13:25:36.002Z,95164.06
2022-11-19T13:28:08.359Z,95164.84
2022-11-19T13:30:36.581Z,95165.56
2022-11-19T13:33:13.637Z,95161.94
2022-11-19T13:35:49.518Z,95170.75
2022-11-19T13:38:24.423Z,95166.34
2022-11-19T13:40:56.336Z,95159.19
2022-11-19T13:43:42.018Z,95166.22
2022-11-19T13:46:33.069Z,95154.19
2022-11-19T13:49:04.887Z,95162.28
2022-11-19T13:51:38.933Z,95162.78
2022-11-19T13:54:10.016Z,95142.38
2022-11-19T13:56:44.774Z,95167.97
2022-11-19T13:59:28.783Z,95172.78
2022-11-19T14:02:10.374Z,95171.66
2022-11-19T14:05:00.337Z,95168.66
2022-11-19T14:07:53.251Z,95160.06
2022-11-19T14:10:31.830Z,95167.47
2022-11-19T14:13:29.920Z,95164.19
2022-11-19T14:16:33.756Z,95157.13
2022-11-19T14:19:23.757Z,95153.25
2022-11-19T14:22:12.072Z,95152.00
2022-11-19T14:25:21.339Z,95136.53
2022-11-19T14:27:50.382Z,95156.59
2022-11-19T14:30:20.781Z,95142.22
2022-11-19T14:32:51.645Z,95155.19
2022-11-19T14:35:37.025Z,95157.53
2022-11-19T14:38:35.026Z,95154.75
2022-11-19T14:41:19.280Z,95161.78
2022-11-19T14:44:12.920Z,95157.47
2022-11-19T14:46:43.464Z,95164.59
2022-11-19T14:49:27.818Z,95164.56
2022-11-19T14:51:57.739Z,95147.53
2022-11-19T14:54:32.235Z,95122.22
2022-11-19T14:57:07.170Z,95179.19
2022-11-19T14:59:38.316Z,95165.34
2022-11-19T15:02:26.245Z,95160.22
2022-11-19T15:05:02.785Z,95152.47
2022-11-19T15:07:41.302Z,95168.63
2022-11-19T15:10:30.124Z,95161.66
2022-11-19T15:13:28.287Z,95164.34
2022-11-19T15:16:03.369Z,95155.34
2022-11-19T15:19:12.842Z,95172.88
2022-11-19T15:22:26.416Z,95180.78
2022-11-19T15:25:05.149Z,95173.50
2022-11-19T15:27:48.328Z,95148.47
2022-11-19T15:30:20.596Z,95163.13
2022-11-19T15:33:13.542Z,95181.38
2022-11-19T15:36:06.502Z,95180.09
2022-11-19T15:38:39.737Z,95182.63
2022-11-19T15:41:16.668Z,95192.56
2022-11-19T15:43:47.942Z,95185.44
2022-11-19T15:46:20.689Z,95172.09
2022-11-19T15:48:58.663Z,95122.13
2022-11-19T15:51:26.470Z,95190.63
2022-11-19T15:54:01.555Z,95207.31
2022-11-19T15:56:32.713Z,95201.34
2022-11-19T15:59:02.258Z,95204.56
2022-11-19T16:01:32.943Z,95181.59
2022-11-19T16:04:07.460Z,95208.56
2022-11-19T16:06:39.581Z,95177.50
2022-11-19T16:09:08.626Z,95211.66
2022-11-19T16:11:56.788Z,95209.31
2022-11-19T16:14:43.969Z,95210.91
2022-11-19T16:17:30.969Z,95208.59
2022-11-19T16:20:08.695Z,95217.22
2022-11-19T16:22:40.878Z,95224.53
2022-11-19T16:25:13.552Z,95205.19
2022-11-19T16:27:43.667Z,95231.09
2022-11-19T16:30:19.832Z,95233.44
2022-11-19T16:32:48.681Z,95229.00
2022-11-19T16:35:24.663Z,95231.84
2022-11-19T16:37:53.463Z,95235.75
2022-11-19T16:40:21.841Z,95225.03
2022-11-19T16:42:52.815Z,95237.81
2022-11-19T16:45:23.707Z,95240.75
2022-11-19T16:47:53.761Z,95232.38
2022-11-19T16:50:32.568Z,95243.00
2022-11-19T16:53:01.226Z,95246.41
2022-11-19T16:55:53.454Z,95242.50
2022-11-19T16:58:26.301Z,95243.06
2022-11-19T17:00:59.364Z,95248.38
2022-11-19T17:03:36.765Z,95242.56
2022-11-19T17:06:07.386Z,95251.22
2022-11-19T17:08:37.503Z,95245.03
2022-11-19T17:11:36.949Z,95256.28
2022-11-19T17:14:19.636Z,95251.03
2022-11-19T17:16:53.328Z,95249.47
2022-11-19T17:19:28.281Z,95246.56
2022-11-19T17:22:00.937Z,95252.78
2022-11-19T17:24:32.720Z,95258.81
2022-11-19T17:27:01.091Z,95263.53
2022-11-19T17:29:28.816Z,95272.47
2022-11-19T17:31:57.298Z,95261.41
2022-11-19T17:34:31.092Z,95269.22
2022-11-19T17:37:00.607Z,95266.91
2022-11-19T17:39:28.363Z,95270.38
2022-11-19T17:42:15.123Z,95277.69
2022-11-19T17:44:43.238Z,95269.84
2022-11-19T17:47:21.860Z,95279.88
2022-11-19T17:49:51.267Z,95277.28
2022-11-19T17:52:24.410Z,95278.84
2022-11-19T17:54:54.276Z,95271.84
2022-11-19T17:57:22.114Z,95287.78
2022-11-19T17:59:49.832Z,95291.44
2022-11-19T18:02:19.809Z,95290.63
2022-11-19T18:04:48.917Z,95302.63
2022-11-19T18:07:16.776Z,95309.22
2022-11-19T18:09:45.895Z,95301.88
2022-11-19T18:12:16.023Z,95308.41
2022-11-19T18:14:44.461Z,95285.72
2022-11-19T18:17:13.048Z,95321.84
2022-11-19T18:19:41.001Z,95318.97
2022-11-19T18:22:17.927Z,95322.09
2022-11-19T18:24:47.839Z,95313.44
2022-11-19T18:27:15.922Z,95311.44
2022-11-19T18:29:43.590Z,95322.16
2022-11-19T18:32:11.838Z,95324.53
2022-11-19T18:34:39.527Z,95307.81
2022-11-19T18:37:07.244Z,95316.69
2022-11-19T18:39:34.903Z,95308.63
2022-11-19T18:42:04.359Z,95315.94
2022-11-19T18:44:33.780Z,95314.16
2022-11-19T18:47:02.663Z,95309.44
2022-11-19T18:49:30.597Z,95301.84
2022-11-19T18:51:58.276Z,95302.63
2022-11-19T18:54:26.088Z,95311.56
2022-11-19T18:56:54.075Z,95306.31
2022-11-19T18:59:23.591Z,95309.16
2022-11-19T19:01:55.557Z,95310.97
2022-11-19T19:04:24.194Z,95312.56
2022-11-19T19:06:52.201Z,95249.78
2022-11-19T19:09:21.096Z,95300.00
2022-11-19T19:12:12.614Z,95312.28
2022-11-19T19:14:42.889Z,95294.22
2022-11-19T19:17:11.100Z,95294.22
2022-11-19T19:19:39.014Z,95307.31
2022-11-19T19:22:07.855Z,95298.41
2022-11-19T19:24:36.076Z,95303.69
2022-11-19T19:27:04.187Z,95289.84
2022-11-19T19:29:32.108Z,95312.56
2022-11-19T19:32:01.336Z,95308.41
2022-11-19T19:34:30.004Z,95306.31
2022-11-19T19:36:57.839Z,95308.41
2022-11-19T19:39:26.159Z,95313.38
2022-11-19T19:41:53.961Z,95315.47
2022-11-19T19:44:21.622Z,95245.16
2022-11-19T19:46:49.765Z,95312.59
2022-11-19T19:49:19.470Z,95316.78
2022-11-19T19:51:48.455Z,95316.25
2022-11-19T19:54:16.257Z,95321.47
2022-11-19T19:56:43.985Z,95320.19
2022-11-19T19:59:13.829Z,95331.19
2022-11-19T20:01:44.524Z,95330.13
2022-11-19T20:04:12.646Z,95332.50
2022-11-19T20:06:46.088Z,95326.22
2022-11-19T20:09:14.087Z,95330.69
2022-11-19T20:11:41.764Z,95319.16
2022-11-19T20:14:11.291Z,95275.47
2022-11-19T20:16:41.428Z,95348.19
2022-11-19T20:19:13.863Z,95334.81
2022-11-19T20:21:43.293Z,95335.38
2022-11-19T20:24:13.320Z,95336.94
2022-11-19T20:26:42.029Z,95311.56
2022-11-19T20:29:12.354Z,95334.81
2022-11-19T20:31:40.711Z,95341.38
2022-11-19T20:34:08.786Z,95338.22
2022-11-19T20:36:37.118Z,95328.31
2022-11-19T20:39:06.996Z,95333.78
2022-11-19T20:41:53.141Z,95323.84
2022-11-19T20:44:21.635Z,95327.25
2022-11-19T20:46:51.665Z,95313.41
2022-11-19T20:49:21.481Z,95331.72
2022-11-19T20:51:49.970Z,95329.38
2022-11-19T20:54:19.958Z,95327.00
2022-11-19T20:56:48.748Z,95339.84
2022-11-19T20:59:16.532Z,95342.69
2022-11-19T21:01:44.252Z,95326.22
2022-11-19T21:04:12.836Z,95342.44
2022-11-19T21:06:40.602Z,95284.34
2022-11-19T21:09:08.879Z,95306.06
2022-11-19T21:11:37.898Z,95331.97
2022-11-19T21:14:06.098Z,95332.75
2022-11-19T21:16:33.868Z,95324.66
2022-11-19T21:19:01.872Z,95336.69
2022-11-19T21:21:29.639Z,95338.78
2022-11-19T21:23:57.532Z,95336.16
2022-11-19T21:26:26.426Z,95337.47
2022-11-19T21:28:56.981Z,95342.19
2022-11-19T21:31:37.863Z,95346.13
2022-11-19T21:34:06.329Z,95344.28
2022-11-19T21:36:34.249Z,95355.00
2022-11-19T21:39:02.256Z,95347.16
2022-11-19T21:41:29.905Z,95344.53
2022-11-19T21:43:59.107Z,95333.81
2022-11-19T21:46:26.862Z,95348.47
2022-11-19T21:48:54.879Z,95347.16
2022-11-19T21:51:24.996Z,95348.22
2022-11-19T21:53:55.404Z,95342.97
2022-11-19T21:56:23.173Z,95338.25
2022-11-19T21:58:50.916Z,95345.06
2022-11-19T22:01:20.067Z,95312.09
2022-11-19T22:03:48.025Z,95342.44
2022-11-19T22:06:15.987Z,95339.06
2022-11-19T22:08:44.372Z,95338.25
2022-11-19T22:11:32.041Z,95345.84
2022-11-19T22:14:02.050Z,95341.13
2022-11-19T22:16:33.086Z,95338.25
2022-11-19T22:19:00.942Z,95339.31
2022-11-19T22:21:29.968Z,95343.22
2022-11-19T22:23:57.719Z,95325.97
2022-11-19T22:26:26.182Z,95291.16
2022-11-19T22:28:53.843Z,95337.97
2022-11-19T22:31:21.653Z,95314.19
2022-11-19T22:33:51.999Z,95257.41
2022-11-19T22:36:21.532Z,95325.44
2022-11-19T22:38:49.324Z,95339.56
2022-11-19T22:41:19.106Z,95349.53
2022-11-19T22:43:47.095Z,95349.78
2022-11-19T22:46:15.793Z,95352.91
2022-11-19T22:48:43.482Z,95261.56
2022-11-19T22:51:14.880Z,95357.88
2022-11-19T22:53:43.097Z,95347.38
2022-11-19T22:56:12.487Z,95359.72
2022-11-19T22:58:40.511Z,95363.91
2022-11-19T23:01:13.841Z,95369.66
2022-11-19T23:03:41.519Z,95342.94
2022-11-19T23:06:09.233Z,95364.66
2022-11-19T23:08:39.011Z,95367.03
2022-11-19T23:11:08.150Z,95350.00
2022-11-19T23:13:39.022Z,95226.19
2022-11-19T23:16:09.163Z,95348.16
2022-11-19T23:18:39.108Z,95349.22
2022-11-19T23:21:08.811Z,95362.03
2022-11-19T23:23:36.589Z,95368.56
2022-11-19T23:26:07.677Z,95368.06
2022-11-19T23:28:37.658Z,95361.25
2022-11-19T23:31:05.866Z,95256.81
2022-11-19T23:33:33.832Z,95344.78
2022-11-19T23:36:06.331Z,95289.81
2022-11-19T23:38:35.762Z,95360.47
2022-11-19T23:41:06.610Z,95356.06
2022-11-19T23:43:35.351Z,95236.19
2022-11-19T23:46:10.069Z,95359.72
2022-11-19T23:48:38.850Z,95362.84
2022-11-19T23:51:09.001Z,95363.13
2022-11-19T23:53:37.075Z,95362.84
2022-11-19T23:56:07.080Z,95342.16
2022-11-19T23:58:35.613Z,95245.59
